Washington, District of Columbia
Traffic Map
Current Weather Conditions
Washington, District of Columbia
Scattered Clouds
Scattered Clouds
Feels Like: 20°
Wind Chill: 20° Ceiling: Unl
Heat Index: 20° Visibility: 10mi
Dew Point: 14° Wind: 5mph
Humidity: 70% Direction: 80° (E)
Pressure: 30.06in Gusts: 0mph
Raw Report DataKDCA 071652Z 08004KT 10SM SCT035 SCT055 20/14 A3006 RMK AO2 SLP179 T02000144
Traffic Incident Summary
Active as of:
InformationThere was an issue retrieving the traffic information for this location. Please try a different location or try again shortly.
Track Severe Weather on mobile